Terminal Aerodrome Forecast
Issued by NWS

Home | Current Version | Previous Version | Graphics & Text | Print | Product List | Glossary On
Versions: 1 2 3 4 5 6 7 8 9 10 11 12 13 14 15 16 17 18
912
FTUS41 KCLE 201141
TAFFDY
TAF
KFDY 201141Z 2012/2112 18010KT P6SM -SHRA BKN080
     FM201400 18010KT P6SM BKN060
     FM201900 18008KT P6SM VCSH BKN040
      TEMPO 2020/2024 5SM -SHRA BKN025
     FM210000 VRB05KT 5SM BR VCSH OVC008
     FM210700 36006KT 6SM BR BKN012=

USA.gov is the U.S. government's official web portal to all federal, state and local government web resources and services.